Time;durP1;ratioP1;P1;durP2;ratioP2;P2;SDS_P1;SDS_P2;PMS_P1;PMS_P2;Temp;Humidity;BMP_temperature;BMP_pressure;BME280_temperature;BME280_humidity;BME280_pressure;Samples;Min_cycle;Max_cycle;Signal;HPM_P1;HPM_P2
2022/10/06 00:01:16;;;;;;;2.37;0.60;;;;;;;15.78;82.37;101591.47;4997105;28;20614;-69
2022/10/06 00:03:42;;;;;;;2.03;0.70;;;;;;;15.71;83.01;101594.00;4990753;28;20545;-72
2022/10/06 00:06:14;;;;;;;1.37;0.60;;;;;;;15.65;82.75;101592.19;4998161;28;20593;-71
2022/10/06 00:08:41;;;;;;;0.83;0.60;;;;;;;15.63;82.70;101591.34;4996307;28;20206;-72
2022/10/06 00:11:08;;;;;;;1.30;0.50;;;;;;;15.59;83.12;101591.25;4995799;28;20254;-71
2022/10/06 00:13:34;;;;;;;1.03;0.60;;;;;;;15.51;83.11;101605.81;4995531;28;20194;-71
2022/10/06 00:16:01;;;;;;;0.57;0.50;;;;;;;15.51;82.75;101622.16;4993102;28;20196;-72
2022/10/06 00:18:28;;;;;;;1.03;0.40;;;;;;;15.55;83.03;101629.09;4999708;28;20191;-71
2022/10/06 00:20:59;;;;;;;1.57;0.60;;;;;;;15.51;82.49;101634.22;4992809;28;20622;-71
2022/10/06 00:23:25;;;;;;;0.73;0.47;;;;;;;15.48;82.56;101626.44;5000010;28;20202;-71
2022/10/06 00:25:50;;;;;;;0.93;0.60;;;;;;;15.48;81.48;101634.19;4990074;28;20204;-71
2022/10/06 00:28:16;;;;;;;2.17;0.80;;;;;;;15.48;81.89;101629.84;4998979;28;20230;-71
2022/10/06 00:30:41;;;;;;;1.70;0.60;;;;;;;15.46;82.12;101630.69;4993295;28;20302;-72
2022/10/06 00:33:12;;;;;;;0.80;0.50;;;;;;;15.46;82.71;101636.72;4991939;28;20227;-72
2022/10/06 00:35:38;;;;;;;0.70;0.50;;;;;;;15.47;82.82;101637.59;4993234;28;20281;-71
2022/10/06 00:38:04;;;;;;;1.23;0.53;;;;;;;15.45;82.77;101639.28;4988298;28;20223;-72
2022/10/06 00:40:31;;;;;;;0.57;0.43;;;;;;;15.42;83.60;101644.44;4999350;28;20214;-71
2022/10/06 00:43:05;;;;;;;2.27;0.77;;;;;;;15.43;83.97;101641.00;4991231;28;20199;-71
2022/10/06 00:45:36;;;;;;;2.53;0.50;;;;;;;15.42;84.48;101657.34;5009307;28;20191;-70
2022/10/06 00:48:07;;;;;;;2.03;0.40;;;;;;;15.38;85.04;101653.81;4997399;28;21373;-72
2022/10/06 00:50:34;;;;;;;0.40;0.40;;;;;;;15.39;85.02;101662.44;4998726;28;20579;-72
2022/10/06 00:53:00;;;;;;;0.80;0.50;;;;;;;15.37;85.56;101664.16;4991046;28;20229;-72
2022/10/06 00:55:26;;;;;;;0.93;0.47;;;;;;;15.37;85.99;101670.16;4995472;28;20188;-71
2022/10/06 00:57:51;;;;;;;0.67;0.43;;;;;;;15.36;86.01;101668.44;4991195;28;20226;-71
2022/10/06 01:00:17;;;;;;;0.90;0.50;;;;;;;15.34;86.12;101674.44;4997042;28;20742;-71
2022/10/06 01:02:49;;;;;;;1.20;0.53;;;;;;;15.31;85.98;101682.97;4997934;28;20687;-70
2022/10/06 01:05:40;;;;;;;0.67;0.40;;;;;;;15.32;85.84;101676.94;4985351;28;20192;-72
2022/10/06 01:08:06;;;;;;;0.77;0.40;;;;;;;15.32;86.07;101686.41;4997177;28;20221;-72
2022/10/06 01:10:32;;;;;;;0.50;0.50;;;;;;;15.28;86.43;101690.66;4996666;28;20841;-71
2022/10/06 01:12:57;;;;;;;1.53;0.50;;;;;;;15.26;86.50;101699.22;4992777;28;20223;-69
2022/10/06 01:15:24;;;;;;;0.53;0.47;;;;;;;15.24;86.63;101694.03;4988446;28;20187;-72
2022/10/06 01:18:07;;;;;;;0.50;0.50;;;;;;;15.22;86.08;101694.84;4992421;28;20195;-72
2022/10/06 01:20:33;;;;;;;1.37;0.70;;;;;;;15.21;85.96;101708.63;4987081;28;20204;-71
2022/10/06 01:23:00;;;;;;;0.60;0.60;;;;;;;15.21;86.89;101704.34;4991686;28;20238;-72
2022/10/06 01:25:27;;;;;;;1.60;0.57;;;;;;;15.18;86.76;101711.13;4996700;28;20623;-71
2022/10/06 01:27:54;;;;;;;2.20;0.70;;;;;;;15.16;86.03;101713.72;4987819;28;20183;-71
2022/10/06 01:30:35;;;;;;;2.50;0.50;;;;;;;15.13;86.45;101726.56;4990332;28;20208;-71
2022/10/06 01:33:00;;;;;;;1.53;0.60;;;;;;;15.13;86.35;101721.41;4984677;28;20207;-71
2022/10/06 01:35:26;;;;;;;0.67;0.43;;;;;;;15.10;86.07;101723.09;4990926;28;20249;-70
2022/10/06 01:37:53;;;;;;;1.30;0.60;;;;;;;15.10;86.22;101725.66;4993924;28;20739;-71
2022/10/06 01:40:19;;;;;;;2.93;0.60;;;;;;;15.04;86.14;101735.88;4988938;28;20225;-71
2022/10/06 01:42:44;;;;;;;2.43;0.60;;;;;;;15.02;85.96;101732.41;4993676;28;20637;-70
2022/10/06 01:45:10;;;;;;;2.83;0.60;;;;;;;14.95;85.72;101746.03;4995540;28;20277;-71
2022/10/06 01:47:36;;;;;;;1.63;0.60;;;;;;;14.89;85.46;101749.41;4973466;28;21123;-69
2022/10/06 01:50:07;;;;;;;1.37;0.60;;;;;;;14.86;85.63;101754.50;4968967;28;20212;-72
2022/10/06 01:52:34;;;;;;;2.00;0.70;;;;;;;14.81;86.00;101757.84;4999616;28;20346;-69
2022/10/06 01:54:59;;;;;;;2.33;0.50;;;;;;;14.80;85.49;101762.16;4997325;28;20229;-71
2022/10/06 01:57:25;;;;;;;1.40;0.60;;;;;;;14.77;85.73;101767.25;4993462;28;20238;-71
2022/10/06 01:59:51;;;;;;;1.23;0.60;;;;;;;14.72;84.95;101768.88;4988515;28;20216;-70
2022/10/06 02:02:16;;;;;;;0.80;0.60;;;;;;;14.68;84.20;101768.81;4993717;28;20568;-72
2022/10/06 02:04:42;;;;;;;2.50;0.60;;;;;;;14.63;84.85;101762.66;5002646;28;20560;-71
2022/10/06 02:07:08;;;;;;;2.23;0.50;;;;;;;14.55;84.76;101772.84;4990925;28;20210;-70
2022/10/06 02:09:41;;;;;;;1.37;0.53;;;;;;;14.49;85.46;101780.47;4991313;28;20254;-72
2022/10/06 02:12:07;;;;;;;2.87;0.80;;;;;;;14.48;84.74;101790.75;4990134;28;20557;-72
2022/10/06 02:14:37;;;;;;;1.83;0.60;;;;;;;14.41;84.94;101784.63;4991991;28;20215;-72
2022/10/06 02:17:02;;;;;;;5.30;0.63;;;;;;;14.36;85.43;101786.25;4992927;28;20649;-71
2022/10/06 02:19:28;;;;;;;2.70;0.53;;;;;;;14.34;85.88;101798.25;4996361;28;20192;-72
2022/10/06 02:21:57;;;;;;;2.37;0.80;;;;;;;14.34;85.62;101808.56;4991423;28;20195;-72
2022/10/06 02:24:22;;;;;;;6.37;0.97;;;;;;;14.30;85.63;101824.78;4990763;28;20191;-72
2022/10/06 02:26:48;;;;;;;1.30;0.60;;;;;;;14.28;85.97;101828.16;5001945;28;20184;-72
2022/10/06 02:29:13;;;;;;;3.33;0.80;;;;;;;14.28;85.83;101834.16;4994763;28;20608;-71
2022/10/06 02:31:39;;;;;;;4.20;0.77;;;;;;;14.21;85.90;101842.63;4996255;28;20222;-71
2022/10/06 02:34:05;;;;;;;2.40;0.60;;;;;;;14.22;86.66;101848.66;4988155;28;20250;-72
2022/10/06 02:36:31;;;;;;;2.80;0.60;;;;;;;14.19;86.65;101857.16;4995008;28;20244;-71
2022/10/06 02:38:56;;;;;;;4.97;0.93;;;;;;;14.16;87.09;101859.66;4997380;28;20235;-71
2022/10/06 02:41:22;;;;;;;3.20;0.70;;;;;;;14.12;87.32;101867.28;4995556;28;20672;-72
2022/10/06 02:43:48;;;;;;;4.37;0.90;;;;;;;14.05;87.81;101853.41;4992047;28;20195;-72
2022/10/06 02:46:14;;;;;;;3.53;1.10;;;;;;;14.05;87.96;101863.69;5013797;28;20188;-72
2022/10/06 02:48:45;;;;;;;5.83;1.07;;;;;;;14.01;87.97;101877.38;5001097;28;20195;-71
2022/10/06 02:51:14;;;;;;;3.53;0.97;;;;;;;14.01;87.92;101873.91;4991970;28;20223;-71
2022/10/06 02:53:43;;;;;;;3.83;1.13;;;;;;;13.98;88.53;101879.00;4992713;28;20187;-72
2022/10/06 02:56:23;;;;;;;3.50;1.10;;;;;;;13.97;88.07;101879.84;4997801;28;20587;-72
2022/10/06 02:58:50;;;;;;;5.23;1.00;;;;;;;13.93;88.03;101890.91;4999201;28;20199;-69
2022/10/06 03:01:27;;;;;;;2.20;0.90;;;;;;;13.90;88.12;101893.41;5012820;28;20264;-71
2022/10/06 03:03:55;;;;;;;3.70;1.20;;;;;;;13.93;87.91;101891.78;4992253;28;20192;-71
2022/10/06 03:06:26;;;;;;;3.50;1.00;;;;;;;13.99;87.93;101901.34;4997258;28;20660;-69
2022/10/06 03:09:05;;;;;;;4.03;1.20;;;;;;;14.00;87.68;101897.94;5002924;28;20185;-72
2022/10/06 03:11:37;;;;;;;3.97;1.10;;;;;;;13.97;87.12;101908.16;4996708;28;20589;-71
2022/10/06 03:14:04;;;;;;;6.40;1.10;;;;;;;13.94;87.17;101913.22;4991481;28;20194;-70
2022/10/06 03:16:34;;;;;;;5.77;1.20;;;;;;;13.90;87.46;101907.16;4990535;28;20188;-72
2022/10/06 03:19:02;;;;;;;5.20;1.63;;;;;;;13.85;87.11;101913.91;4996345;28;20616;-71
2022/10/06 03:21:30;;;;;;;4.07;1.27;;;;;;;13.85;87.00;101926.78;4989116;28;20684;-71
2022/10/06 03:23:57;;;;;;;6.40;1.40;;;;;;;13.82;87.56;101931.88;5008812;28;20748;-70
2022/10/06 03:26:28;;;;;;;3.27;1.20;;;;;;;13.78;87.06;101944.63;4997520;28;20292;-70
2022/10/06 03:28:55;;;;;;;5.83;1.33;;;;;;;13.78;87.98;101945.50;5006801;28;20184;-70
2022/10/06 03:31:21;;;;;;;6.60;1.40;;;;;;;13.78;86.89;101954.91;4999594;28;20230;-71
2022/10/06 03:33:47;;;;;;;5.43;1.50;;;;;;;13.78;87.41;101958.38;4994491;28;20195;-70
2022/10/06 03:36:18;;;;;;;1.83;0.90;;;;;;;13.77;86.89;101958.34;4999813;28;20190;-70
2022/10/06 03:38:43;;;;;;;4.50;1.40;;;;;;;13.73;87.68;101967.69;4996134;28;20629;-72
2022/10/06 03:41:12;;;;;;;7.20;1.43;;;;;;;13.69;87.61;101973.59;4997513;28;20242;-69
2022/10/06 03:43:39;;;;;;;3.97;1.27;;;;;;;13.67;87.93;101982.13;4986921;28;20218;-71
2022/10/06 03:46:06;;;;;;;3.80;1.30;;;;;;;13.65;87.71;101992.38;5003548;28;20235;-72
2022/10/06 03:48:33;;;;;;;3.70;1.33;;;;;;;13.62;87.44;101994.84;4983567;28;20198;-71
2022/10/06 03:51:05;;;;;;;5.53;0.97;;;;;;;13.62;87.61;101991.41;4988476;28;20242;-72
2022/10/06 03:53:32;;;;;;;5.40;1.03;;;;;;;13.61;87.51;102002.53;4996426;28;20198;-71
2022/10/06 03:56:03;;;;;;;4.30;1.00;;;;;;;13.62;87.16;101987.13;4988248;28;20191;-71
2022/10/06 03:58:32;;;;;;;4.23;1.20;;;;;;;13.55;86.95;102007.53;4993787;28;20562;-71
2022/10/06 04:01:06;;;;;;;7.37;1.57;;;;;;;13.53;87.43;102012.63;4996360;28;20207;-72
2022/10/06 04:03:32;;;;;;;5.80;1.57;;;;;;;13.51;87.62;102004.00;4988840;28;21104;-72
2022/10/06 04:06:00;;;;;;;6.90;1.57;;;;;;;13.51;87.19;102009.16;4987487;28;20196;-71
2022/10/06 04:08:27;;;;;;;5.80;1.30;;;;;;;13.46;87.55;102015.88;4999840;28;20203;-71
2022/10/06 04:10:53;;;;;;;6.63;1.27;;;;;;;13.50;87.50;102029.69;4987485;28;20207;-71
2022/10/06 04:13:20;;;;;;;5.93;1.40;;;;;;;13.49;87.17;102020.25;4999526;28;20549;-70
2022/10/06 04:15:47;;;;;;;4.80;1.23;;;;;;;13.44;87.17;102019.25;4996618;28;20191;-72
2022/10/06 04:18:14;;;;;;;8.67;1.70;;;;;;;13.44;87.90;102026.97;4993775;28;20196;-72
2022/10/06 04:20:40;;;;;;;6.63;1.43;;;;;;;13.44;87.51;102032.13;4993865;28;20785;-70
2022/10/06 04:23:07;;;;;;;7.93;1.53;;;;;;;13.44;87.68;102042.41;4989503;28;20196;-71
2022/10/06 04:25:33;;;;;;;9.93;1.50;;;;;;;13.39;88.04;102044.00;4996935;28;20206;-72
2022/10/06 04:27:59;;;;;;;10.50;1.57;;;;;;;13.39;87.98;102044.00;4995843;28;20658;-71
2022/10/06 04:30:25;;;;;;;8.03;1.30;;;;;;;13.39;87.97;102044.84;4993759;28;20211;-71
2022/10/06 04:32:52;;;;;;;8.30;1.53;;;;;;;13.39;87.85;102056.84;4995299;28;20269;-70
2022/10/06 04:35:18;;;;;;;7.23;1.93;;;;;;;13.37;87.73;102056.81;4996269;28;20191;-72
2022/10/06 04:37:43;;;;;;;5.33;1.23;;;;;;;13.32;88.65;102058.38;4988874;28;20558;-72
2022/10/06 04:40:09;;;;;;;7.97;2.00;;;;;;;13.30;88.26;102052.31;4992038;28;20215;-72
2022/10/06 04:42:36;;;;;;;10.87;1.90;;;;;;;13.26;88.22;102065.91;5013831;28;20255;-71
2022/10/06 04:45:05;;;;;;;6.73;1.50;;;;;;;13.24;88.78;102070.16;4993853;28;20194;-71
2022/10/06 04:47:31;;;;;;;7.30;1.50;;;;;;;13.22;88.89;102079.50;4986474;28;20215;-71
2022/10/06 04:49:57;;;;;;;5.80;1.43;;;;;;;13.20;88.60;102086.31;4991271;28;20226;-71
2022/10/06 04:52:22;;;;;;;6.63;1.90;;;;;;;13.23;88.55;102093.25;4988023;28;20208;-72
2022/10/06 04:54:49;;;;;;;8.60;1.70;;;;;;;13.19;88.80;102094.00;4990649;28;20210;-72
2022/10/06 04:57:14;;;;;;;6.07;1.73;;;;;;;13.16;89.01;102101.63;4994643;28;20606;-71
2022/10/06 05:02:27;;;;;;;10.20;1.70;;;;;;;13.14;89.07;102116.13;4994238;28;20269;-70
2022/10/06 05:04:54;;;;;;;8.40;1.30;;;;;;;13.13;88.51;102125.56;4993678;28;20194;-71
2022/10/06 05:07:21;;;;;;;8.00;1.77;;;;;;;13.11;88.57;102134.06;4991568;28;20179;-71
2022/10/06 05:09:47;;;;;;;8.67;1.87;;;;;;;13.07;88.88;102132.22;4993026;28;20191;-71
2022/10/06 05:12:12;;;;;;;7.77;2.03;;;;;;;13.04;88.31;102137.25;4997840;28;20354;-71
2022/10/06 05:14:39;;;;;;;9.33;1.87;;;;;;;13.02;88.35;102144.94;4984035;28;20271;-70
2022/10/06 05:17:04;;;;;;;5.93;1.60;;;;;;;12.98;88.89;102144.81;4995210;28;20341;-71
2022/10/06 05:19:30;;;;;;;7.43;2.10;;;;;;;13.02;88.49;102150.06;4984297;28;20285;-70
2022/10/06 05:21:56;;;;;;;5.63;1.47;;;;;;;13.02;88.04;102156.94;4997738;28;20736;-70
2022/10/06 05:24:24;;;;;;;8.10;1.90;;;;;;;13.05;87.19;102170.75;4990701;28;20252;-71
2022/10/06 05:26:50;;;;;;;7.00;1.60;;;;;;;13.01;87.77;102163.75;4990724;28;20932;-69
2022/10/06 05:29:15;;;;;;;7.03;1.57;;;;;;;13.01;86.97;102171.47;5006751;28;20732;-70
2022/10/06 05:31:42;;;;;;;9.30;1.80;;;;;;;13.02;87.32;102185.22;4994910;28;20219;-70
2022/10/06 05:34:08;;;;;;;7.23;1.83;;;;;;;12.98;87.38;102185.94;4988849;28;20681;-70
2022/10/06 05:36:34;;;;;;;6.97;1.90;;;;;;;12.95;87.29;102189.25;4993800;28;20183;-72
2022/10/06 05:39:01;;;;;;;12.83;2.03;;;;;;;12.93;87.52;102199.50;4993053;28;20234;-70
2022/10/06 05:41:33;;;;;;;8.93;1.80;;;;;;;12.93;87.68;102193.47;4988716;28;20295;-72
2022/10/06 05:44:02;;;;;;;7.33;1.80;;;;;;;12.92;87.37;102202.00;4986273;28;20646;-71
2022/10/06 05:46:30;;;;;;;7.07;1.60;;;;;;;12.92;87.79;102209.72;4993043;28;20191;-71
2022/10/06 05:49:02;;;;;;;12.93;1.83;;;;;;;12.93;87.36;102218.31;5000093;28;20187;-68
2022/10/06 05:51:32;;;;;;;11.47;2.20;;;;;;;12.91;87.75;102221.69;4984634;28;20261;-71
2022/10/06 05:54:01;;;;;;;5.50;1.33;;;;;;;12.86;87.87;102236.09;4990947;28;20197;-71
2022/10/06 05:56:32;;;;;;;14.37;2.47;;;;;;;12.89;87.51;102237.91;4991392;28;20282;-69
2022/10/06 05:58:59;;;;;;;9.53;1.90;;;;;;;12.88;87.46;102236.16;4992924;28;20195;-72
2022/10/06 06:01:26;;;;;;;7.73;1.80;;;;;;;12.86;87.64;102245.53;4986527;28;20647;-70
2022/10/06 06:03:59;;;;;;;11.53;2.27;;;;;;;12.84;87.38;102254.88;4990402;28;20213;-70
2022/10/06 06:06:32;;;;;;;6.17;2.10;;;;;;;12.84;86.55;102253.19;5004747;28;20183;-71
2022/10/06 06:09:03;;;;;;;9.40;2.20;;;;;;;12.83;86.80;102256.59;4986260;28;20199;-72
2022/10/06 06:11:30;;;;;;;10.13;2.00;;;;;;;12.86;86.72;102276.38;4987219;28;20243;-71
2022/10/06 06:13:58;;;;;;;10.37;1.97;;;;;;;12.89;86.55;102267.06;5001026;28;20188;-68
2022/10/06 06:16:24;;;;;;;8.77;2.10;;;;;;;12.89;86.26;102271.31;4995023;28;20381;-71
2022/10/06 06:18:50;;;;;;;6.40;1.60;;;;;;;12.88;86.63;102273.03;5000018;28;20565;-72
2022/10/06 06:21:16;;;;;;;11.73;2.30;;;;;;;12.93;86.23;102280.88;4994288;28;20885;-72
2022/10/06 06:23:45;;;;;;;5.33;1.40;;;;;;;12.99;85.37;102286.28;4987087;28;20650;-70
2022/10/06 06:26:17;;;;;;;9.70;2.13;;;;;;;13.03;85.26;102300.09;4997453;28;20215;-71
2022/10/06 06:28:46;;;;;;;6.77;1.90;;;;;;;13.11;85.17;102308.97;4965263;28;20192;-70
2022/10/06 06:31:25;;;;;;;14.70;2.10;;;;;;;13.17;84.43;102315.13;4998091;28;20700;-71
2022/10/06 06:33:53;;;;;;;12.93;2.43;;;;;;;13.20;84.08;102304.97;4992535;28;20203;-71
2022/10/06 06:36:20;;;;;;;10.23;2.70;;;;;;;13.26;83.42;102307.72;4986017;28;20211;-71
2022/10/06 06:38:51;;;;;;;5.80;1.60;;;;;;;13.32;82.86;102319.91;4980106;28;20191;-71
2022/10/06 06:41:21;;;;;;;7.33;1.70;;;;;;;13.41;82.16;102323.66;4992059;28;20230;-72
2022/10/06 06:43:50;;;;;;;11.03;2.23;;;;;;;13.49;82.20;102323.91;4986446;28;20701;-70
2022/10/06 06:46:33;;;;;;;7.93;1.80;;;;;;;13.60;81.79;102332.81;4990106;28;20195;-71
2022/10/06 06:49:06;;;;;;;12.07;2.67;;;;;;;13.70;80.83;102329.69;4997209;28;20198;-72
2022/10/06 06:51:41;;;;;;;7.50;2.00;;;;;;;13.85;80.63;102340.50;4989588;28;20219;-71
2022/10/06 06:54:08;;;;;;;12.10;1.93;;;;;;;13.93;79.76;102344.13;4995756;28;20183;-72
2022/10/06 06:56:37;;;;;;;8.23;1.87;;;;;;;14.04;78.56;102345.34;5007170;28;20246;-72
2022/10/06 06:59:10;;;;;;;10.13;1.67;;;;;;;14.23;77.48;102348.50;4980049;28;20289;-72
2022/10/06 07:01:37;;;;;;;11.93;2.00;;;;;;;14.32;77.25;102348.78;4998217;28;20611;-71
2022/10/06 07:04:03;;;;;;;8.93;1.90;;;;;;;14.35;77.75;102353.16;4997067;28;20267;-72
2022/10/06 07:06:36;;;;;;;9.27;2.10;;;;;;;14.44;77.02;102353.41;4995962;28;20551;-72
2022/10/06 07:09:02;;;;;;;9.43;2.03;;;;;;;14.55;75.81;102359.75;4993102;28;20230;-71
2022/10/06 07:11:34;;;;;;;6.87;1.80;;;;;;;14.66;75.26;102360.91;4995791;28;20226;-72
2022/10/06 07:14:04;;;;;;;9.07;1.87;;;;;;;14.75;75.45;102376.63;4996433;28;20187;-71
2022/10/06 07:25:05;;;;;;;10.00;1.93;;;;;;;15.00;73.28;102404.81;5007711;28;20722;-71
2022/10/06 07:27:43;;;;;;;8.93;1.97;;;;;;;15.04;73.35;102402.38;5005310;28;20191;-72
2022/10/06 07:30:17;;;;;;;12.17;2.23;;;;;;;15.21;72.65;102411.44;5009431;28;20208;-72
2022/10/06 07:32:44;;;;;;;7.13;2.10;;;;;;;15.47;71.62;102412.13;4979385;28;20215;-73
2022/10/06 07:35:10;;;;;;;8.00;2.10;;;;;;;15.40;71.08;102420.53;4988359;28;20187;-76
2022/10/06 07:37:36;;;;;;;8.00;1.97;;;;;;;15.61;70.87;102411.59;4985149;28;20203;-73
2022/10/06 07:40:05;;;;;;;9.03;2.30;;;;;;;15.52;71.33;102420.84;4991093;28;20208;-75
2022/10/06 07:42:46;;;;;;;9.27;2.10;;;;;;;15.67;70.48;102423.78;5010740;28;20192;-74
2022/10/06 07:45:38;;;;;;;9.13;2.20;;;;;;;15.91;69.81;102430.41;5000180;28;20188;-73
2022/10/06 07:48:17;;;;;;;8.13;2.50;;;;;;;16.10;68.58;102442.91;4996021;28;20187;-73
2022/10/06 07:50:47;;;;;;;10.87;2.13;;;;;;;15.95;68.48;102455.50;4971785;28;20541;-73
2022/10/06 07:53:16;;;;;;;7.20;1.90;;;;;;;15.95;69.26;102449.44;4988965;28;20199;-72
2022/10/06 07:55:46;;;;;;;10.30;2.23;;;;;;;16.07;68.82;102447.16;4989288;28;20183;-73
2022/10/06 07:58:24;;;;;;;8.73;2.03;;;;;;;16.08;67.36;102457.53;5001748;28;20551;-71
2022/10/06 08:00:53;;;;;;;7.83;2.10;;;;;;;16.40;67.69;102455.69;4988608;28;20739;-71
2022/10/06 08:03:19;;;;;;;9.00;2.20;;;;;;;16.21;67.90;102462.13;5002237;28;20187;-70
2022/10/06 08:05:46;;;;;;;9.30;2.23;;;;;;;16.43;67.23;102464.38;4986769;28;20197;-72
2022/10/06 08:08:13;;;;;;;8.93;2.00;;;;;;;16.54;66.30;102468.03;5014632;28;20191;-72
2022/10/06 08:10:40;;;;;;;11.80;2.43;;;;;;;16.42;65.99;102477.25;4992581;28;20259;-70
2022/10/06 08:13:06;;;;;;;9.30;2.30;;;;;;;16.53;66.65;102483.56;4991182;28;20219;-72
2022/10/06 08:15:32;;;;;;;7.97;2.30;;;;;;;16.99;65.72;102483.66;4987695;28;20641;-73
2022/10/06 08:18:01;;;;;;;9.90;2.70;;;;;;;17.05;64.94;102489.84;4995127;28;20245;-71
2022/10/06 08:20:27;;;;;;;9.33;2.23;;;;;;;16.91;64.82;102490.41;4993571;28;20249;-72
2022/10/06 08:22:52;;;;;;;10.43;2.13;;;;;;;17.12;64.82;102498.56;4987608;28;20208;-72
2022/10/06 08:25:19;;;;;;;10.93;2.03;;;;;;;17.38;63.99;102498.22;4994249;28;20185;-73
2022/10/06 08:27:44;;;;;;;9.03;1.97;;;;;;;17.49;63.91;102506.22;4995139;28;20192;-70
2022/10/06 08:30:11;;;;;;;8.73;2.30;;;;;;;17.61;62.69;102512.50;5000680;28;20215;-72
2022/10/06 08:32:37;;;;;;;10.77;2.40;;;;;;;17.75;62.99;102511.03;4987781;28;20635;-71
2022/10/06 08:35:03;;;;;;;11.03;2.27;;;;;;;17.90;61.93;102523.34;5013631;28;20196;-72
2022/10/06 08:37:29;;;;;;;9.73;2.37;;;;;;;18.00;60.84;102513.16;4985426;28;20186;-72
2022/10/06 08:39:55;;;;;;;10.90;2.30;;;;;;;18.29;60.59;102513.59;4996882;28;20211;-72
2022/10/06 08:42:41;;;;;;;12.13;1.97;;;;;;;18.30;60.71;102520.53;4991243;28;20323;-72
2022/10/06 08:45:31;;;;;;;9.20;2.43;;;;;;;18.62;59.80;102524.50;5000942;28;20195;-72
2022/10/06 08:48:04;;;;;;;9.38;2.25;;;;;;;18.74;58.96;102522.06;4993552;28;20199;-73
2022/10/06 08:50:52;;;;;;;7.57;2.33;;;;;;;19.14;57.57;102526.88;4990676;28;20238;-72
2022/10/06 08:53:25;;;;;;;8.48;1.83;;;;;;;19.49;56.71;102525.56;4991016;28;20792;-72
2022/10/06 08:56:03;;;;;;;7.72;2.08;;;;;;;20.03;55.07;102532.13;4987814;28;20191;-71
2022/10/06 08:58:55;;;;;;;9.07;2.58;;;;;;;20.22;54.08;102530.59;4997320;28;20234;-73
2022/10/06 09:01:25;;;;;;;5.38;2.03;;;;;;;21.93;49.41;102532.13;4983105;28;20263;-71
2022/10/06 09:03:53;;;;;;;9.10;2.22;;;;;;;23.94;44.87;102530.50;4983557;28;20272;-72
2022/10/06 09:06:34;;;;;;;10.90;2.28;;;;;;;23.45;43.90;102529.09;4979904;28;20715;-73
2022/10/06 09:09:29;;;;;;;11.27;2.25;;;;;;;25.42;41.01;102537.59;4981844;28;20273;-70
2022/10/06 09:12:03;;;;;;;10.27;2.30;;;;;;;24.39;42.00;102544.91;4981183;28;20214;-73
2022/10/06 09:14:40;;;;;;;8.35;2.45;;;;;;;25.19;40.65;102543.09;4981527;28;20194;-73
2022/10/06 09:17:10;;;;;;;11.15;2.50;;;;;;;25.07;40.73;102545.03;4990437;28;20222;-72
2022/10/06 09:19:44;;;;;;;7.97;1.80;;;;;;;23.28;43.22;102553.59;4984081;28;20296;-71
2022/10/06 09:22:19;;;;;;;6.22;2.22;;;;;;;23.82;41.56;102561.97;4986809;28;20182;-72
2022/10/06 09:24:49;;;;;;;6.72;2.70;;;;;;;25.30;39.01;102556.09;4983899;28;20532;-75
2022/10/06 09:27:20;;;;;;;6.82;2.10;;;;;;;26.89;36.59;102553.44;4982235;28;20196;-74
2022/10/06 09:29:49;;;;;;;7.90;2.33;;;;;;;28.13;35.21;102552.34;4981503;28;20187;-74
2022/10/06 09:32:20;;;;;;;7.40;2.33;;;;;;;27.35;36.14;102560.31;4982014;28;20239;-73
2022/10/06 09:34:50;;;;;;;10.07;2.65;;;;;;;28.27;34.28;102561.59;4980988;28;20196;-71
2022/10/06 09:37:16;;;;;;;6.60;2.22;;;;;;;28.16;34.26;102557.50;4998168;28;20231;-73
2022/10/06 09:39:49;;;;;;;7.93;2.22;;;;;;;26.82;35.39;102573.72;5010077;28;20222;-73
2022/10/06 09:42:28;;;;;;;8.63;2.35;;;;;;;28.30;34.04;102558.88;4982816;28;20188;-72
2022/10/06 09:45:00;;;;;;;7.05;2.42;;;;;;;29.57;32.41;102562.25;4994265;28;20183;-72
2022/10/06 09:47:28;;;;;;;7.63;2.42;;;;;;;30.81;30.69;102556.25;4986349;28;20447;-72
2022/10/06 09:50:03;;;;;;;6.60;2.70;;;;;;;29.79;31.08;102554.53;4997513;28;20265;-72
2022/10/06 09:52:28;;;;;;;6.25;2.42;;;;;;;29.41;31.67;102565.38;4985940;28;20234;-71
2022/10/06 09:55:27;;;;;;;4.97;2.05;;;;;;;31.58;29.32;102559.38;4996159;28;20194;-71
2022/10/06 09:57:57;;;;;;;4.60;1.83;;;;;;;31.07;28.84;102561.41;4991765;28;20286;-71
2022/10/06 10:00:31;;;;;;;7.45;2.10;;;;;;;26.61;35.50;102595.16;4997480;28;20300;-71
2022/10/06 10:03:03;;;;;;;6.78;2.03;;;;;;;27.32;34.50;102591.13;4994808;28;20186;-71
2022/10/06 10:05:32;;;;;;;7.05;2.30;;;;;;;31.52;29.88;102566.72;4995054;28;20198;-72
2022/10/06 10:08:03;;;;;;;4.93;2.03;;;;;;;27.61;33.98;102597.47;4991518;28;20207;-72
2022/10/06 10:10:29;;;;;;;7.95;2.35;;;;;;;28.51;32.88;102586.50;4999591;28;20217;-73
2022/10/06 10:12:59;;;;;;;3.92;1.58;;;;;;;27.19;34.22;102600.16;4991039;28;20216;-71
2022/10/06 10:15:31;;;;;;;7.55;1.98;;;;;;;30.61;29.88;102594.91;4987155;28;20709;-71
2022/10/06 10:18:01;;;;;;;5.18;1.77;;;;;;;32.26;27.53;102583.94;4981193;28;20251;-72
2022/10/06 10:20:39;;;;;;;9.23;2.20;;;;;;;31.26;28.61;102582.78;4982055;28;20238;-73
2022/10/06 10:23:22;;;;;;;5.82;2.05;;;;;;;29.61;30.23;102602.66;4994535;28;20188;-73
2022/10/06 10:25:57;;;;;;;5.18;2.00;;;;;;;25.38;37.71;102623.34;4995443;28;20202;-72
2022/10/06 10:28:31;;;;;;;6.55;2.00;;;;;;;26.19;35.21;102621.28;4981987;28;20203;-73
2022/10/06 10:31:29;;;;;;;5.18;1.95;;;;;;;23.81;40.14;102633.50;4997835;28;20301;-70
2022/10/06 10:34:01;;;;;;;7.40;2.00;;;;;;;23.35;40.42;102634.66;4981159;28;20203;-73
2022/10/06 10:36:36;;;;;;;7.35;2.17;;;;;;;27.27;34.42;102622.78;4983204;28;20219;-70
2022/10/06 10:39:05;;;;;;;6.95;1.92;;;;;;;26.09;34.55;102633.72;4986907;28;20565;-72
2022/10/06 10:41:41;;;;;;;4.88;1.80;;;;;;;24.00;38.21;102634.31;4986399;28;20345;-73
2022/10/06 10:44:09;;;;;;;4.38;1.80;;;;;;;25.13;36.09;102645.47;4956131;28;20199;-71
2022/10/06 10:46:47;;;;;;;4.57;1.70;;;;;;;25.42;36.80;102648.66;4984957;28;20270;-72
2022/10/06 10:49:18;;;;;;;5.82;1.95;;;;;;;29.64;29.40;102636.91;4986986;28;20582;-73
2022/10/06 10:51:44;;;;;;;4.63;1.85;;;;;;;30.86;28.92;102631.06;4976599;28;20242;-72
2022/10/06 10:54:18;;;;;;;5.70;2.20;;;;;;;27.61;33.73;102641.34;5003826;28;20183;-73
2022/10/06 10:56:47;;;;;;;6.00;2.13;;;;;;;29.57;30.48;102630.94;4996772;28;20191;-73
2022/10/06 10:59:41;;;;;;;5.32;2.08;;;;;;;30.41;29.02;102634.38;5004143;28;20198;-74
2022/10/06 11:02:18;;;;;;;5.53;2.10;;;;;;;32.70;25.34;102629.81;4999939;28;20195;-70
2022/10/06 11:04:48;;;;;;;6.20;1.83;;;;;;;28.26;31.38;102648.63;4994021;28;20200;-72
2022/10/06 11:07:29;;;;;;;5.15;1.90;;;;;;;23.96;38.80;102674.47;4987773;28;20267;-72
2022/10/06 11:10:03;;;;;;;7.40;1.77;;;;;;;30.47;30.06;102650.06;4983516;28;20238;-73
2022/10/06 11:12:37;;;;;;;7.13;2.03;;;;;;;29.04;31.05;102650.09;4983851;28;20211;-73
2022/10/06 11:15:16;;;;;;;6.47;2.00;;;;;;;26.94;34.18;102662.06;4984266;28;20605;-73
2022/10/06 11:17:45;;;;;;;7.70;2.17;;;;;;;31.44;27.80;102643.03;4999884;28;20185;-73
2022/10/06 11:20:26;;;;;;;5.80;1.83;;;;;;;32.61;26.38;102639.06;4984476;28;20212;-73
2022/10/06 11:23:05;;;;;;;5.40;1.88;;;;;;;34.55;23.29;102633.28;5001153;28;20518;-73
2022/10/06 11:26:14;;;;;;;6.07;2.15;;;;;;;35.13;22.57;102639.09;4994906;28;20188;-72
2022/10/06 11:28:55;;;;;;;8.05;1.98;;;;;;;34.82;23.85;102636.34;4970468;28;20196;-72
2022/10/06 11:31:32;;;;;;;5.30;2.10;;;;;;;33.09;23.92;102651.97;4982156;28;20226;-74
2022/10/06 11:34:00;;;;;;;8.13;2.40;;;;;;;34.54;23.66;102639.53;4976408;28;20207;-74
2022/10/06 11:36:28;;;;;;;5.15;2.03;;;;;;;34.78;23.06;102654.28;4984929;28;20191;-74
2022/10/06 11:39:19;;;;;;;4.65;1.95;;;;;;;30.20;28.14;102670.34;4985329;28;20191;-73
2022/10/06 11:41:51;;;;;;;7.90;2.22;;;;;;;32.63;26.15;102665.53;5000500;28;20218;-73
2022/10/06 11:44:46;;;;;;;6.82;2.15;;;;;;;35.04;23.51;102652.91;4984625;28;20191;-74
2022/10/06 11:47:29;;;;;;;4.93;2.10;;;;;;;35.92;21.94;102647.09;4981588;28;20215;-73
2022/10/06 11:49:54;;;;;;;5.50;2.38;;;;;;;35.22;23.10;102657.25;4982810;28;20251;-72